createdAt,value
2023-03-21T00:00:29.099Z,1.00
2023-03-21T00:02:55.837Z,1.00
2023-03-21T00:05:22.490Z,1.00
2023-03-21T00:07:49.079Z,1.00
2023-03-21T00:10:23.900Z,1.00
2023-03-21T00:12:58.530Z,1.00
2023-03-21T00:15:39.269Z,1.00
2023-03-21T00:18:11.215Z,1.00
2023-03-21T00:20:37.828Z,1.00
2023-03-21T00:23:04.575Z,1.00
2023-03-21T00:25:32.840Z,1.00
2023-03-21T00:28:07.895Z,99.90
2023-03-21T00:30:35.405Z,99.90
2023-03-21T00:33:12.108Z,99.90
2023-03-21T00:36:05.798Z,99.90
2023-03-21T00:38:32.473Z,99.90
2023-03-21T00:41:04.747Z,99.90
2023-03-21T00:43:31.487Z,99.90
2023-03-21T00:45:58.690Z,99.90
2023-03-21T00:48:26.169Z,1.00
2023-03-21T00:50:54.083Z,1.00
2023-03-21T00:53:20.683Z,1.00
2023-03-21T00:55:47.330Z,1.00
2023-03-21T00:58:13.849Z,99.90
2023-03-21T01:00:41.142Z,1.00
2023-03-21T01:03:23.237Z,1.00
2023-03-21T01:06:07.142Z,1.00
2023-03-21T01:08:50.466Z,22.90
2023-03-21T01:11:19.103Z,1.00
2023-03-21T01:13:53.641Z,1.00
2023-03-21T01:16:22.742Z,18.50
2023-03-21T01:18:49.582Z,99.90
2023-03-21T01:21:16.295Z,99.90
2023-03-21T01:23:43.302Z,1.00
2023-03-21T01:26:11.340Z,99.90
2023-03-21T01:28:39.080Z,1.00
2023-03-21T01:31:06.040Z,1.00
2023-03-21T01:33:33.460Z,99.90
2023-03-21T01:36:11.739Z,99.90
2023-03-21T01:38:39.532Z,13.50
2023-03-21T01:41:17.156Z,1.00
2023-03-21T01:43:45.978Z,1.00
2023-03-21T01:46:21.654Z,1.00
2023-03-21T01:48:53.679Z,1.00
2023-03-21T01:51:21.622Z,1.00
2023-03-21T01:53:48.335Z,1.00
2023-03-21T01:56:23.581Z,99.90
2023-03-21T01:58:51.244Z,99.90
2023-03-21T02:01:18.648Z,99.90
2023-03-21T02:03:52.122Z,99.90
2023-03-21T02:06:25.707Z,39.40
2023-03-21T02:08:52.882Z,17.60
2023-03-21T02:11:19.558Z,99.90
2023-03-21T02:13:46.811Z,99.90
2023-03-21T02:16:22.023Z,99.90
2023-03-21T02:18:51.612Z,99.90
2023-03-21T02:21:21.191Z,1.00
2023-03-21T02:23:48.502Z,1.00
2023-03-21T02:26:36.098Z,1.00
2023-03-21T02:29:18.331Z,1.00
2023-03-21T02:31:54.637Z,1.00
2023-03-21T02:35:00.976Z,99.90
2023-03-21T02:37:38.412Z,96.90
2023-03-21T02:40:10.932Z,99.90
2023-03-21T02:46:10.257Z,1.00
2023-03-21T02:48:50.891Z,1.00
2023-03-21T02:51:19.657Z,99.90
2023-03-21T02:53:53.326Z,99.90
2023-03-21T02:56:27.492Z,99.90
2023-03-21T02:58:54.243Z,99.90
2023-03-21T03:01:20.919Z,99.90
2023-03-21T03:03:47.504Z,99.90
2023-03-21T03:06:18.463Z,99.90
2023-03-21T03:09:02.615Z,99.90
2023-03-21T03:11:31.094Z,99.90
2023-03-21T03:14:49.924Z,99.90
2023-03-21T03:17:43.096Z,99.90
2023-03-21T03:20:16.988Z,99.90
2023-03-21T03:22:56.043Z,99.90
2023-03-21T03:25:42.554Z,99.90
2023-03-21T03:28:11.205Z,99.90
2023-03-21T03:30:45.013Z,99.90
2023-03-21T03:33:23.363Z,99.90
2023-03-21T03:36:02.546Z,99.90
2023-03-21T03:38:31.681Z,99.90
2023-03-21T03:41:12.357Z,99.90
2023-03-21T03:43:46.809Z,99.90
2023-03-21T03:46:18.937Z,99.90
2023-03-21T03:48:56.865Z,99.90
2023-03-21T03:51:30.028Z,99.90
2023-03-21T03:54:01.771Z,99.90
2023-03-21T03:56:28.863Z,99.90
2023-03-21T03:58:56.349Z,99.90
2023-03-21T04:01:23.133Z,99.90
2023-03-21T04:03:56.259Z,99.90
2023-03-21T04:06:29.070Z,99.90
2023-03-21T04:08:56.696Z,99.90
2023-03-21T04:11:23.389Z,99.90
2023-03-21T04:13:50.221Z,99.90
2023-03-21T04:16:17.146Z,99.90
2023-03-21T04:18:43.666Z,1.00
2023-03-21T04:21:12.722Z,1.00
2023-03-21T04:23:39.798Z,1.00
2023-03-21T04:26:06.461Z,1.00
2023-03-21T04:28:33.496Z,1.00
2023-03-21T04:31:05.054Z,1.00
2023-03-21T04:33:38.497Z,1.00
2023-03-21T04:36:09.329Z,1.00
2023-03-21T04:38:36.214Z,1.00
2023-03-21T04:41:03.148Z,1.00
2023-03-21T04:43:30.684Z,1.00
2023-03-21T04:45:57.534Z,1.00
2023-03-21T04:48:24.683Z,75.20
2023-03-21T04:50:51.698Z,99.90
2023-03-21T04:53:18.181Z,99.90
2023-03-21T04:55:45.451Z,99.90
2023-03-21T04:58:12.066Z,1.00
2023-03-21T05:00:39.066Z,1.00
2023-03-21T05:03:09.424Z,1.00
2023-03-21T05:05:39.472Z,97.40
2023-03-21T05:08:06.335Z,99.90
2023-03-21T05:10:33.345Z,1.00
2023-03-21T05:12:59.931Z,1.00
2023-03-21T05:15:26.528Z,1.00
2023-03-21T05:17:53.082Z,1.00
2023-03-21T05:20:19.757Z,99.90
2023-03-21T05:22:50.032Z,99.90
2023-03-21T05:25:18.059Z,99.90
2023-03-21T05:27:46.860Z,53.20
2023-03-21T05:30:17.713Z,89.20
2023-03-21T05:32:44.405Z,3.00
2023-03-21T05:35:10.937Z,99.90
2023-03-21T05:37:38.411Z,99.90
2023-03-21T05:40:08.679Z,1.00
2023-03-21T05:42:35.376Z,1.00
2023-03-21T05:45:01.879Z,99.90
2023-03-21T05:47:28.398Z,99.90
2023-03-21T05:49:54.931Z,99.90
2023-03-21T05:52:21.777Z,99.90
2023-03-21T05:54:48.386Z,99.90
2023-03-21T05:57:19.106Z,99.90
2023-03-21T05:59:45.877Z,1.00
2023-03-21T06:02:12.531Z,99.90
2023-03-21T06:04:39.304Z,99.90
2023-03-21T06:07:05.816Z,1.00
2023-03-21T06:09:33.674Z,1.00
2023-03-21T06:12:00.429Z,99.90
2023-03-21T06:14:27.195Z,99.90
2023-03-21T06:16:56.761Z,99.90
2023-03-21T06:19:23.312Z,86.80
2023-03-21T06:21:50.068Z,99.90
2023-03-21T06:24:17.751Z,99.90
2023-03-21T06:26:45.098Z,99.90
2023-03-21T06:29:11.926Z,99.90
2023-03-21T06:31:38.464Z,99.90
2023-03-21T06:34:05.224Z,99.90
2023-03-21T06:36:31.815Z,1.00
2023-03-21T06:38:58.322Z,1.00
2023-03-21T06:41:24.826Z,1.00
2023-03-21T06:43:51.371Z,1.00
2023-03-21T06:46:17.961Z,1.00
2023-03-21T06:48:44.825Z,1.00
2023-03-21T06:51:12.128Z,99.90
2023-03-21T06:53:39.283Z,99.90
2023-03-21T06:56:06.203Z,99.90
2023-03-21T06:58:32.746Z,99.90
2023-03-21T07:01:00.077Z,2.80
2023-03-21T07:03:26.595Z,20.60
2023-03-21T07:05:53.307Z,1.00
2023-03-21T07:08:19.840Z,1.00
2023-03-21T07:10:47.117Z,1.00
2023-03-21T07:13:13.929Z,1.00
2023-03-21T07:15:41.312Z,1.00
2023-03-21T07:18:09.108Z,1.00
2023-03-21T07:20:37.919Z,1.00
2023-03-21T07:23:04.873Z,1.00
2023-03-21T07:25:31.453Z,1.00
2023-03-21T07:27:58.024Z,99.90
2023-03-21T07:30:24.610Z,99.90
2023-03-21T07:32:51.131Z,99.90
2023-03-21T07:35:17.996Z,99.90
2023-03-21T07:37:44.551Z,99.90
2023-03-21T07:40:12.416Z,99.90
2023-03-21T07:42:39.770Z,99.90
2023-03-21T07:45:07.780Z,99.90
2023-03-21T07:47:34.778Z,99.90
2023-03-21T07:50:01.559Z,99.90
2023-03-21T07:52:28.065Z,99.90
2023-03-21T07:54:54.597Z,99.90
2023-03-21T07:57:21.136Z,99.90
2023-03-21T07:59:47.664Z,99.90
2023-03-21T08:02:17.656Z,99.90
2023-03-21T08:04:44.231Z,99.90
2023-03-21T08:07:11.070Z,99.90
2023-03-21T08:09:37.641Z,99.90
2023-03-21T08:12:04.801Z,99.90
2023-03-21T08:14:31.351Z,99.90
2023-03-21T08:16:57.881Z,99.90
2023-03-21T08:19:24.443Z,99.90
2023-03-21T08:21:51.962Z,99.90
2023-03-21T08:24:18.562Z,99.90
2023-03-21T08:26:46.212Z,99.90
2023-03-21T08:29:13.223Z,99.90
2023-03-21T08:31:40.158Z,99.90
2023-03-21T08:34:07.450Z,99.90
2023-03-21T08:36:36.921Z,99.90
2023-03-21T08:39:05.495Z,99.90
2023-03-21T08:41:36.891Z,99.90
2023-03-21T08:44:04.470Z,99.90
2023-03-21T08:46:31.328Z,99.90
2023-03-21T08:48:57.896Z,99.90
2023-03-21T08:51:24.600Z,99.90
2023-03-21T08:53:51.390Z,99.90
2023-03-21T08:56:18.274Z,99.90
2023-03-21T08:58:44.898Z,99.90
2023-03-21T09:01:15.888Z,99.90
2023-03-21T09:03:43.003Z,99.90
2023-03-21T09:06:10.879Z,99.90
2023-03-21T09:08:38.005Z,99.90
2023-03-21T09:11:04.619Z,99.90
2023-03-21T09:13:31.219Z,97.50
2023-03-21T09:16:01.251Z,97.30
2023-03-21T09:18:50.548Z,99.20
2023-03-21T09:21:18.354Z,95.10
2023-03-21T09:23:45.022Z,99.90
2023-03-21T09:26:12.517Z,99.90
2023-03-21T09:28:40.448Z,99.90
2023-03-21T09:31:08.298Z,99.90
2023-03-21T09:33:35.382Z,99.90
2023-03-21T09:36:01.999Z,99.90
2023-03-21T09:38:30.460Z,99.90
2023-03-21T09:41:03.600Z,99.90
2023-03-21T09:43:47.853Z,99.90
2023-03-21T09:46:31.841Z,99.90
2023-03-21T09:49:00.983Z,99.90
2023-03-21T09:51:31.048Z,99.90
2023-03-21T09:54:00.564Z,99.90
2023-03-21T09:56:27.227Z,99.90
2023-03-21T09:58:55.929Z,99.90
2023-03-21T10:01:29.823Z,99.90
2023-03-21T10:03:57.348Z,99.90
2023-03-21T10:06:31.911Z,99.90
2023-03-21T10:09:07.166Z,99.90
2023-03-21T10:11:42.039Z,99.90
2023-03-21T10:14:14.188Z,99.90
2023-03-21T10:16:41.843Z,99.90
2023-03-21T10:19:11.225Z,99.90
2023-03-21T10:21:59.260Z,99.90
2023-03-21T10:24:27.068Z,99.90
2023-03-21T10:26:54.228Z,99.90
2023-03-21T10:29:24.565Z,99.90
2023-03-21T10:31:52.089Z,99.90
2023-03-21T10:34:48.056Z,99.90
2023-03-21T10:37:16.658Z,99.90
2023-03-21T10:39:45.109Z,99.90
2023-03-21T10:42:17.328Z,99.90
2023-03-21T10:44:47.158Z,99.90
2023-03-21T10:47:19.134Z,99.90
2023-03-21T10:50:15.935Z,99.90
2023-03-21T10:52:33.880Z,99.90
2023-03-21T10:55:06.885Z,99.90
2023-03-21T10:57:33.484Z,99.90
2023-03-21T11:00:02.241Z,99.90
2023-03-21T11:02:32.889Z,99.90
2023-03-21T11:05:04.808Z,99.90
2023-03-21T11:07:32.098Z,99.90
2023-03-21T11:09:59.808Z,99.90
2023-03-21T11:12:34.780Z,99.90
2023-03-21T11:15:15.214Z,99.90
2023-03-21T11:17:41.806Z,99.90
2023-03-21T11:20:11.285Z,99.90
2023-03-21T11:22:42.410Z,99.90
2023-03-21T11:25:12.041Z,99.90
2023-03-21T11:27:47.131Z,99.90
2023-03-21T11:30:19.891Z,99.90
2023-03-21T11:32:50.712Z,99.90
2023-03-21T11:35:21.525Z,99.90
2023-03-21T11:37:53.209Z,99.90
2023-03-21T11:40:24.336Z,99.90
2023-03-21T11:42:52.380Z,99.90
2023-03-21T11:45:21.301Z,99.90
2023-03-21T11:47:49.464Z,99.90
2023-03-21T11:50:16.573Z,99.90
2023-03-21T11:53:07.319Z,99.90
2023-03-21T11:55:41.698Z,99.90
2023-03-21T11:58:17.955Z,99.90
2023-03-21T12:00:51.652Z,99.90
2023-03-21T12:03:30.725Z,99.90
2023-03-21T12:06:01.565Z,99.90
2023-03-21T12:08:46.912Z,99.90
2023-03-21T12:11:28.599Z,99.90
2023-03-21T12:14:13.964Z,99.90
2023-03-21T12:16:48.223Z,99.90
2023-03-21T12:19:20.740Z,99.90
2023-03-21T12:21:56.423Z,99.90
2023-03-21T12:24:24.687Z,99.90
2023-03-21T12:27:08.506Z,99.90
2023-03-21T12:29:57.003Z,99.90
2023-03-21T12:32:34.486Z,99.90
2023-03-21T12:35:08.171Z,99.90
2023-03-21T12:37:47.859Z,99.90
2023-03-21T12:40:24.824Z,99.90
2023-03-21T12:43:01.439Z,99.90
2023-03-21T12:45:40.607Z,99.90
2023-03-21T12:48:18.973Z,99.90
2023-03-21T12:50:46.283Z,99.90
2023-03-21T12:53:27.058Z,99.90
2023-03-21T12:55:55.170Z,99.90
2023-03-21T12:58:24.349Z,99.90
2023-03-21T13:00:58.569Z,99.90
2023-03-21T13:03:40.241Z,99.90
2023-03-21T13:06:09.375Z,99.90
2023-03-21T13:08:42.039Z,99.90
2023-03-21T13:11:10.774Z,99.90
2023-03-21T13:13:49.623Z,99.90
2023-03-21T13:16:20.202Z,99.90
2023-03-21T13:19:05.339Z,99.90
2023-03-21T13:21:38.722Z,99.90
2023-03-21T13:24:17.113Z,99.90
2023-03-21T13:26:47.618Z,99.90
2023-03-21T13:29:15.490Z,99.90
2023-03-21T13:31:52.082Z,99.90
2023-03-21T13:34:21.829Z,99.90
2023-03-21T13:36:49.599Z,99.90
2023-03-21T13:39:20.742Z,99.90
2023-03-21T13:41:49.117Z,99.90
2023-03-21T13:44:22.854Z,99.90
2023-03-21T13:47:00.190Z,99.90
2023-03-21T13:49:28.784Z,99.90
2023-03-21T13:51:58.303Z,99.90
2023-03-21T13:54:29.901Z,99.90
2023-03-21T13:57:00.009Z,99.90
2023-03-21T13:59:36.424Z,99.90
2023-03-21T14:02:12.060Z,99.90
2023-03-21T14:04:43.286Z,99.90
2023-03-21T14:07:23.297Z,99.90
2023-03-21T14:09:51.872Z,99.90
2023-03-21T14:12:19.768Z,99.90
2023-03-21T14:17:38.854Z,99.90
2023-03-21T14:20:25.700Z,99.90
2023-03-21T14:22:52.368Z,99.90
2023-03-21T14:25:20.087Z,99.90
2023-03-21T14:27:50.841Z,99.90
2023-03-21T14:30:23.072Z,99.90
2023-03-21T14:32:49.585Z,99.90
2023-03-21T14:35:16.204Z,99.90
2023-03-21T14:37:43.797Z,99.90
2023-03-21T14:40:22.713Z,99.90
2023-03-21T14:42:50.291Z,99.90
2023-03-21T14:45:27.214Z,99.90
2023-03-21T14:47:55.141Z,99.90
2023-03-21T14:50:24.521Z,99.90
2023-03-21T14:52:52.739Z,99.90
2023-03-21T14:55:19.439Z,99.90
2023-03-21T14:57:46.057Z,99.90
2023-03-21T15:00:18.155Z,99.90
2023-03-21T15:02:46.227Z,99.90
2023-03-21T15:05:32.509Z,99.90
2023-03-21T15:08:00.688Z,99.90
2023-03-21T15:10:28.561Z,99.90
2023-03-21T15:12:56.608Z,99.90
2023-03-21T15:15:27.168Z,99.90
2023-03-21T15:17:55.905Z,99.90
2023-03-21T15:20:24.746Z,99.90
2023-03-21T15:22:54.032Z,99.90
2023-03-21T15:25:25.321Z,99.90
2023-03-21T15:27:51.916Z,99.90
2023-03-21T15:30:20.106Z,99.90
2023-03-21T15:32:47.460Z,99.90
2023-03-21T15:35:16.680Z,99.90
2023-03-21T15:37:43.258Z,99.90
2023-03-21T15:40:20.336Z,99.90
2023-03-21T15:42:46.856Z,99.90
2023-03-21T15:45:19.717Z,99.90
2023-03-21T15:47:49.479Z,99.90
2023-03-21T15:50:34.867Z,99.90
2023-03-21T15:53:02.758Z,99.90
2023-03-21T15:55:48.114Z,99.90
2023-03-21T15:58:17.003Z,99.90
2023-03-21T16:00:48.778Z,99.90
2023-03-21T16:03:18.295Z,99.90
2023-03-21T16:06:03.856Z,99.90
2023-03-21T16:08:33.571Z,99.90
2023-03-21T16:11:15.626Z,99.90
2023-03-21T16:13:42.194Z,99.90
2023-03-21T16:16:15.792Z,99.90
2023-03-21T16:18:42.330Z,99.90
2023-03-21T16:21:11.801Z,99.90
2023-03-21T16:23:38.311Z,99.90
2023-03-21T16:26:05.229Z,99.90
2023-03-21T16:28:31.815Z,99.90
2023-03-21T16:30:58.380Z,99.90
2023-03-21T16:33:28.151Z,99.90
2023-03-21T16:35:57.726Z,99.90
2023-03-21T16:38:24.337Z,99.90
2023-03-21T16:40:51.606Z,99.90
2023-03-21T16:43:18.132Z,99.90
2023-03-21T16:45:44.749Z,99.90
2023-03-21T16:48:16.328Z,99.90
2023-03-21T16:50:46.890Z,99.90
2023-03-21T16:53:13.395Z,99.90
2023-03-21T16:55:39.992Z,99.90
2023-03-21T16:58:06.780Z,99.90
2023-03-21T17:00:33.402Z,99.90
2023-03-21T17:03:01.716Z,99.90
2023-03-21T17:05:30.580Z,99.90
2023-03-21T17:07:57.619Z,99.90
2023-03-21T17:10:29.235Z,99.90
2023-03-21T17:12:56.210Z,99.90
2023-03-21T17:15:22.753Z,99.90
2023-03-21T17:17:50.293Z,99.90
2023-03-21T17:20:19.147Z,99.90
2023-03-21T17:22:46.090Z,99.90
2023-03-21T17:25:14.134Z,99.90
2023-03-21T17:27:41.080Z,99.90
2023-03-21T17:30:14.897Z,99.00
2023-03-21T17:32:41.465Z,98.80
2023-03-21T17:35:08.172Z,99.90
2023-03-21T17:37:34.787Z,99.90
2023-03-21T17:40:01.618Z,99.90
2023-03-21T17:42:28.141Z,99.90
2023-03-21T17:44:54.936Z,99.90
2023-03-21T17:47:25.450Z,99.90
2023-03-21T17:49:52.380Z,99.90
2023-03-21T17:52:19.042Z,99.90
2023-03-21T17:54:45.548Z,99.90
2023-03-21T17:57:12.104Z,99.90
2023-03-21T17:59:38.599Z,99.90
2023-03-21T18:02:05.172Z,99.90
2023-03-21T18:04:31.993Z,99.90
2023-03-21T18:07:01.094Z,99.90
2023-03-21T18:09:28.492Z,99.90
2023-03-21T18:12:00.224Z,99.90
2023-03-21T18:14:29.038Z,99.90
2023-03-21T18:16:57.378Z,99.90
2023-03-21T18:19:24.226Z,99.90
2023-03-21T18:21:51.444Z,99.90
2023-03-21T18:24:18.063Z,99.90
2023-03-21T18:26:44.767Z,99.90
2023-03-21T18:32:08.854Z,99.90
2023-03-21T18:34:36.860Z,99.90
2023-03-21T18:37:04.495Z,99.90
2023-03-21T18:39:33.425Z,99.90
2023-03-21T18:42:02.524Z,99.90
2023-03-21T18:44:30.416Z,99.90
2023-03-21T18:46:57.764Z,99.90
2023-03-21T18:52:12.342Z,99.90
2023-03-21T18:54:39.116Z,99.90
2023-03-21T18:59:53.255Z,99.90
2023-03-21T19:02:19.981Z,99.90
2023-03-21T19:04:46.520Z,99.90
2023-03-21T19:07:13.575Z,99.90
2023-03-21T19:10:01.448Z,99.90
2023-03-21T19:12:27.431Z,99.90
2023-03-21T19:14:54.180Z,99.90
2023-03-21T19:20:08.325Z,99.90
2023-03-21T19:22:34.964Z,99.90
2023-03-21T19:25:01.575Z,99.90
2023-03-21T19:27:28.083Z,99.90
2023-03-21T19:30:10.932Z,99.90
2023-03-21T19:32:40.692Z,99.90
2023-03-21T19:35:07.436Z,99.90
2023-03-21T19:37:36.135Z,99.90
2023-03-21T19:40:05.432Z,99.90
2023-03-21T19:42:32.396Z,99.90
2023-03-21T19:44:59.147Z,99.90
2023-03-21T19:47:26.265Z,99.90
2023-03-21T19:52:40.797Z,99.90
2023-03-21T19:55:08.293Z,99.90
2023-03-21T19:57:35.183Z,99.90
2023-03-21T20:00:02.906Z,99.90
2023-03-21T20:02:37.338Z,99.90
2023-03-21T20:05:07.815Z,99.90
2023-03-21T20:07:34.581Z,99.90
2023-03-21T20:10:01.502Z,99.90
2023-03-21T20:12:28.575Z,99.90
2023-03-21T20:15:07.156Z,99.90
2023-03-21T20:17:42.040Z,99.90
2023-03-21T20:20:14.965Z,99.90
2023-03-21T20:25:29.257Z,99.90
2023-03-21T20:28:12.695Z,99.90
2023-03-21T20:30:46.026Z,99.90
2023-03-21T20:33:13.230Z,99.90
2023-03-21T20:38:30.895Z,99.90
2023-03-21T20:40:58.123Z,99.90
2023-03-21T20:46:11.933Z,99.90
2023-03-21T20:48:38.748Z,99.90
2023-03-21T20:52:00.029Z,99.90
2023-03-21T20:53:55.216Z,99.90
2023-03-21T20:56:21.811Z,99.90
2023-03-21T20:59:11.888Z,99.90
2023-03-21T21:01:35.088Z,99.90
2023-03-21T21:04:01.641Z,99.90
2023-03-21T21:06:28.602Z,99.90
2023-03-21T21:09:00.111Z,99.90
2023-03-21T21:12:05.160Z,99.90
2023-03-21T21:14:15.381Z,99.90
2023-03-21T21:16:41.981Z,99.90
2023-03-21T21:19:08.572Z,99.90
2023-03-21T21:21:35.097Z,99.90
2023-03-21T21:24:02.412Z,99.90
2023-03-21T21:26:28.954Z,99.90
2023-03-21T21:28:58.139Z,99.90
2023-03-21T21:31:24.742Z,99.90
2023-03-21T21:33:54.189Z,99.90
2023-03-21T21:36:20.926Z,99.90
2023-03-21T21:38:57.793Z,99.90
2023-03-21T21:41:25.016Z,99.90
2023-03-21T21:43:52.062Z,99.90
2023-03-21T21:46:18.605Z,99.90
2023-03-21T21:48:45.221Z,99.90
2023-03-21T21:51:11.827Z,99.90
2023-03-21T21:53:38.840Z,99.90
2023-03-21T21:56:06.496Z,99.90
2023-03-21T21:58:38.569Z,99.90
2023-03-21T22:01:07.284Z,99.90
2023-03-21T22:03:40.890Z,99.90
2023-03-21T22:06:08.416Z,99.90
2023-03-21T22:08:35.292Z,1.00
2023-03-21T22:11:01.783Z,1.00
2023-03-21T22:13:28.482Z,1.00
2023-03-21T22:15:55.146Z,1.00
2023-03-21T22:18:22.219Z,99.90
2023-03-21T22:20:48.912Z,99.90
2023-03-21T22:23:15.428Z,1.00
2023-03-21T22:25:43.273Z,1.00
2023-03-21T22:28:09.805Z,1.00
2023-03-21T22:30:36.491Z,1.00
2023-03-21T22:33:09.706Z,1.00
2023-03-21T22:35:37.028Z,1.00
2023-03-21T22:38:03.568Z,22.00
2023-03-21T22:40:30.249Z,99.90
2023-03-21T22:42:56.764Z,99.90
2023-03-21T22:45:23.386Z,99.90
2023-03-21T22:47:49.946Z,99.90
2023-03-21T22:50:16.470Z,1.00
2023-03-21T22:52:43.030Z,1.00
2023-03-21T22:55:12.487Z,1.00
2023-03-21T22:57:38.982Z,99.90
2023-03-21T23:00:12.998Z,1.00
2023-03-21T23:02:40.656Z,1.00
2023-03-21T23:05:08.366Z,99.90
2023-03-21T23:07:34.896Z,99.90
2023-03-21T23:10:01.486Z,1.00
2023-03-21T23:12:28.010Z,1.00
2023-03-21T23:14:54.526Z,1.00
2023-03-21T23:17:21.082Z,12.60
2023-03-21T23:19:47.614Z,99.90
2023-03-21T23:22:14.122Z,99.90
2023-03-21T23:24:40.682Z,1.00
2023-03-21T23:27:07.183Z,1.00
2023-03-21T23:29:33.692Z,99.90
2023-03-21T23:32:00.907Z,99.90
2023-03-21T23:34:27.949Z,99.90
2023-03-21T23:36:54.458Z,99.90
2023-03-21T23:39:20.972Z,1.00
2023-03-21T23:41:47.500Z,1.00
2023-03-21T23:44:15.191Z,1.00
2023-03-21T23:46:41.714Z,1.00
2023-03-21T23:49:09.152Z,99.90
2023-03-21T23:51:35.721Z,66.90
2023-03-21T23:54:02.420Z,99.90
2023-03-21T23:56:28.962Z,1.00
2023-03-21T23:58:56.653Z,1.00
